sensor_id;sensor_type;location;lat;lon;timestamp;pressure;altitude;pressure_sealevel;temperature;humidity
20860;BME280;10590;48.154;11.514;2023-02-03T00:01:37;96722.94;;;3.47;80.02
20860;BME280;10590;48.154;11.514;2023-02-03T00:06:41;96742.66;;;3.62;79.78
20860;BME280;10590;48.154;11.514;2023-02-03T00:11:42;96752.50;;;3.66;79.38
20860;BME280;10590;48.154;11.514;2023-02-03T00:16:44;96760.00;;;3.74;78.67
20860;BME280;10590;48.154;11.514;2023-02-03T00:21:47;96754.78;;;3.79;78.51
20860;BME280;10590;48.154;11.514;2023-02-03T00:26:49;96739.94;;;3.73;77.94
20860;BME280;10590;48.154;11.514;2023-02-03T00:31:51;96741.03;;;3.77;78.01
20860;BME280;10590;48.154;11.514;2023-02-03T00:36:55;96734.72;;;3.78;77.66
20860;BME280;10590;48.154;11.514;2023-02-03T00:41:57;96736.38;;;3.84;76.74
20860;BME280;10590;48.154;11.514;2023-02-03T00:46:58;96746.69;;;3.86;77.44
20860;BME280;10590;48.154;11.514;2023-02-03T00:52:01;96747.25;;;3.88;76.63
20860;BME280;10590;48.154;11.514;2023-02-03T00:57:03;96742.22;;;3.87;76.46
20860;BME280;10590;48.154;11.514;2023-02-03T01:02:05;96741.97;;;3.88;76.40
20860;BME280;10590;48.154;11.514;2023-02-03T01:07:08;96746.69;;;3.86;76.12
20860;BME280;10590;48.154;11.514;2023-02-03T01:12:10;96764.44;;;3.91;76.40
20860;BME280;10590;48.154;11.514;2023-02-03T01:17:11;96756.75;;;3.89;75.88
20860;BME280;10590;48.154;11.514;2023-02-03T01:22:15;96758.38;;;3.90;75.88
20860;BME280;10590;48.154;11.514;2023-02-03T01:27:16;96760.28;;;3.95;76.01
20860;BME280;10590;48.154;11.514;2023-02-03T01:32:18;96751.78;;;3.93;75.79
20860;BME280;10590;48.154;11.514;2023-02-03T01:37:21;96744.13;;;3.91;75.69
20860;BME280;10590;48.154;11.514;2023-02-03T01:42:22;96738.03;;;3.91;75.97
20860;BME280;10590;48.154;11.514;2023-02-03T01:47:28;96735.47;;;3.96;75.28
20860;BME280;10590;48.154;11.514;2023-02-03T01:52:32;96730.72;;;3.98;75.19
20860;BME280;10590;48.154;11.514;2023-02-03T01:57:38;96725.75;;;4.01;74.60
20860;BME280;10590;48.154;11.514;2023-02-03T02:02:41;96721.22;;;3.97;75.39
20860;BME280;10590;48.154;11.514;2023-02-03T02:07:46;96711.81;;;4.06;74.52
20860;BME280;10590;48.154;11.514;2023-02-03T02:12:49;96713.28;;;3.97;75.02
20860;BME280;10590;48.154;11.514;2023-02-03T02:18:16;96710.16;;;4.00;74.59
20860;BME280;10590;48.154;11.514;2023-02-03T02:23:38;96731.09;;;4.06;74.39
20860;BME280;10590;48.154;11.514;2023-02-03T02:29:02;96716.53;;;4.04;74.41
20860;BME280;10590;48.154;11.514;2023-02-03T02:34:21;96720.53;;;4.06;74.35
20860;BME280;10590;48.154;11.514;2023-02-03T02:39:32;96725.03;;;4.06;73.79
20860;BME280;10590;48.154;11.514;2023-02-03T02:44:40;96737.19;;;4.07;73.69
20860;BME280;10590;48.154;11.514;2023-02-03T02:49:50;96749.66;;;4.11;73.79
20860;BME280;10590;48.154;11.514;2023-02-03T02:54:57;96739.88;;;4.12;73.57
20860;BME280;10590;48.154;11.514;2023-02-03T03:00:03;96720.53;;;4.06;73.78
20860;BME280;10590;48.154;11.514;2023-02-03T03:05:08;96714.75;;;4.09;74.03
20860;BME280;10590;48.154;11.514;2023-02-03T03:10:15;96720.84;;;4.10;73.40
20860;BME280;10590;48.154;11.514;2023-02-03T03:15:26;96718.25;;;4.15;73.02
20860;BME280;10590;48.154;11.514;2023-02-03T03:20:30;96711.94;;;4.16;73.20
20860;BME280;10590;48.154;11.514;2023-02-03T03:25:37;96729.38;;;4.17;73.08
20860;BME280;10590;48.154;11.514;2023-02-03T03:30:40;96718.56;;;4.19;72.58
20860;BME280;10590;48.154;11.514;2023-02-03T03:35:48;96707.19;;;4.18;72.28
20860;BME280;10590;48.154;11.514;2023-02-03T03:40:59;96691.53;;;4.11;72.93
20860;BME280;10590;48.154;11.514;2023-02-03T03:46:07;96687.38;;;4.15;72.97
20860;BME280;10590;48.154;11.514;2023-02-03T03:51:16;96683.06;;;4.09;72.53
20860;BME280;10590;48.154;11.514;2023-02-03T03:56:24;96682.47;;;4.02;73.06
20860;BME280;10590;48.154;11.514;2023-02-03T04:01:31;96696.28;;;4.09;73.20
20860;BME280;10590;48.154;11.514;2023-02-03T04:06:35;96701.63;;;4.14;72.33
20860;BME280;10590;48.154;11.514;2023-02-03T04:11:37;96700.16;;;4.02;72.96
20860;BME280;10590;48.154;11.514;2023-02-03T04:16:57;96721.03;;;4.03;72.48
20860;BME280;10590;48.154;11.514;2023-02-03T04:22:00;96737.66;;;4.04;72.52
20860;BME280;10590;48.154;11.514;2023-02-03T04:27:02;96738.47;;;4.04;72.48
20860;BME280;10590;48.154;11.514;2023-02-03T04:32:04;96736.13;;;4.08;71.98
20860;BME280;10590;48.154;11.514;2023-02-03T04:37:10;96720.16;;;3.98;72.10
20860;BME280;10590;48.154;11.514;2023-02-03T04:42:13;96722.31;;;4.01;72.77
20860;BME280;10590;48.154;11.514;2023-02-03T04:47:15;96741.53;;;3.96;72.14
20860;BME280;10590;48.154;11.514;2023-02-03T04:52:18;96764.50;;;3.96;72.49
20860;BME280;10590;48.154;11.514;2023-02-03T04:57:20;96739.63;;;3.92;72.59
20860;BME280;10590;48.154;11.514;2023-02-03T05:02:23;96744.72;;;3.98;72.25
20860;BME280;10590;48.154;11.514;2023-02-03T05:07:26;96727.47;;;3.91;72.61
20860;BME280;10590;48.154;11.514;2023-02-03T05:12:27;96741.22;;;3.93;72.28
20860;BME280;10590;48.154;11.514;2023-02-03T05:17:29;96739.09;;;3.90;72.57
20860;BME280;10590;48.154;11.514;2023-02-03T05:22:32;96730.06;;;3.86;72.70
20860;BME280;10590;48.154;11.514;2023-02-03T05:27:37;96738.84;;;3.91;72.65
20860;BME280;10590;48.154;11.514;2023-02-03T05:32:39;96724.28;;;3.89;72.15
20860;BME280;10590;48.154;11.514;2023-02-03T05:37:43;96709.72;;;3.86;72.94
20860;BME280;10590;48.154;11.514;2023-02-03T05:42:46;96707.41;;;3.90;72.69
20860;BME280;10590;48.154;11.514;2023-02-03T05:47:48;96683.88;;;3.88;72.61
20860;BME280;10590;48.154;11.514;2023-02-03T05:52:51;96691.56;;;3.90;71.96
20860;BME280;10590;48.154;11.514;2023-02-03T05:57:53;96696.09;;;3.94;72.42
20860;BME280;10590;48.154;11.514;2023-02-03T06:02:55;96709.97;;;3.84;72.89
20860;BME280;10590;48.154;11.514;2023-02-03T06:08:00;96695.97;;;3.84;72.76
20860;BME280;10590;48.154;11.514;2023-02-03T06:13:08;96709.72;;;3.86;72.84
20860;BME280;10590;48.154;11.514;2023-02-03T06:18:10;96696.53;;;3.86;72.12
20860;BME280;10590;48.154;11.514;2023-02-03T06:23:13;96710.66;;;3.97;72.28
20860;BME280;10590;48.154;11.514;2023-02-03T06:28:16;96718.03;;;3.95;72.16
20860;BME280;10590;48.154;11.514;2023-02-03T06:33:18;96751.59;;;3.99;71.57
20860;BME280;10590;48.154;11.514;2023-02-03T06:38:21;96705.88;;;3.94;71.72
20860;BME280;10590;48.154;11.514;2023-02-03T06:43:23;96690.03;;;3.94;71.73
20860;BME280;10590;48.154;11.514;2023-02-03T06:48:24;96688.47;;;3.98;72.16
20860;BME280;10590;48.154;11.514;2023-02-03T06:53:27;96714.94;;;4.03;71.61
20860;BME280;10590;48.154;11.514;2023-02-03T06:58:29;96727.47;;;4.12;71.62
20860;BME280;10590;48.154;11.514;2023-02-03T07:03:30;96743.31;;;4.12;71.99
20860;BME280;10590;48.154;11.514;2023-02-03T07:08:33;96734.09;;;4.15;71.78
20860;BME280;10590;48.154;11.514;2023-02-03T07:13:35;96723.91;;;4.24;71.19
20860;BME280;10590;48.154;11.514;2023-02-03T07:18:37;96711.44;;;4.19;71.09
20860;BME280;10590;48.154;11.514;2023-02-03T07:23:40;96703.25;;;4.21;71.83
20860;BME280;10590;48.154;11.514;2023-02-03T07:28:41;96698.97;;;4.14;71.44
20860;BME280;10590;48.154;11.514;2023-02-03T07:33:43;96703.88;;;4.28;70.63
20860;BME280;10590;48.154;11.514;2023-02-03T07:38:46;96682.97;;;4.26;69.88
20860;BME280;10590;48.154;11.514;2023-02-03T07:43:48;96674.75;;;4.44;69.31
20860;BME280;10590;48.154;11.514;2023-02-03T07:48:50;96657.97;;;4.61;68.64
20860;BME280;10590;48.154;11.514;2023-02-03T07:53:53;96665.75;;;4.45;68.81
20860;BME280;10590;48.154;11.514;2023-02-03T07:58:54;96665.34;;;4.59;68.82
20860;BME280;10590;48.154;11.514;2023-02-03T08:03:56;96661.66;;;4.60;67.87
20860;BME280;10590;48.154;11.514;2023-02-03T08:08:59;96675.00;;;4.75;67.81
20860;BME280;10590;48.154;11.514;2023-02-03T08:14:01;96667.56;;;4.72;67.06
20860;BME280;10590;48.154;11.514;2023-02-03T08:19:02;96703.34;;;4.79;67.25
20860;BME280;10590;48.154;11.514;2023-02-03T08:24:08;96704.09;;;4.75;66.70
20860;BME280;10590;48.154;11.514;2023-02-03T08:29:10;96713.13;;;4.79;66.89
20860;BME280;10590;48.154;11.514;2023-02-03T08:34:12;96688.81;;;4.82;66.28
20860;BME280;10590;48.154;11.514;2023-02-03T08:39:15;96719.69;;;4.76;66.37
20860;BME280;10590;48.154;11.514;2023-02-03T08:44:16;96714.66;;;4.75;66.27
20860;BME280;10590;48.154;11.514;2023-02-03T08:49:19;96700.97;;;4.83;66.18
20860;BME280;10590;48.154;11.514;2023-02-03T08:54:24;96684.66;;;4.91;66.61
20860;BME280;10590;48.154;11.514;2023-02-03T08:59:26;96672.22;;;4.92;65.96
20860;BME280;10590;48.154;11.514;2023-02-03T09:04:28;96660.59;;;4.93;65.62
20860;BME280;10590;48.154;11.514;2023-02-03T09:09:33;96646.94;;;5.06;64.95
20860;BME280;10590;48.154;11.514;2023-02-03T09:14:34;96662.78;;;5.01;65.16
20860;BME280;10590;48.154;11.514;2023-02-03T09:19:36;96672.72;;;5.21;65.02
20860;BME280;10590;48.154;11.514;2023-02-03T09:24:39;96671.44;;;5.23;64.19
20860;BME280;10590;48.154;11.514;2023-02-03T09:29:40;96660.63;;;5.30;64.46
20860;BME280;10590;48.154;11.514;2023-02-03T09:34:42;96673.59;;;5.31;63.92
20860;BME280;10590;48.154;11.514;2023-02-03T09:39:45;96647.94;;;5.32;63.97
20860;BME280;10590;48.154;11.514;2023-02-03T09:44:57;96665.44;;;5.43;63.75
20860;BME280;10590;48.154;11.514;2023-02-03T09:50:04;96636.81;;;5.35;64.11
20860;BME280;10590;48.154;11.514;2023-02-03T09:55:23;96669.22;;;5.57;63.64
20860;BME280;10590;48.154;11.514;2023-02-03T10:00:29;96640.41;;;5.61;63.41
20860;BME280;10590;48.154;11.514;2023-02-03T10:05:56;96635.69;;;5.78;62.88
20860;BME280;10590;48.154;11.514;2023-02-03T10:11:13;96648.13;;;5.72;62.51
20860;BME280;10590;48.154;11.514;2023-02-03T10:16:32;96670.63;;;5.70;63.49
20860;BME280;10590;48.154;11.514;2023-02-03T10:21:38;96675.59;;;5.56;63.61
20860;BME280;10590;48.154;11.514;2023-02-03T10:26:43;96648.66;;;5.74;62.94
20860;BME280;10590;48.154;11.514;2023-02-03T10:31:46;96650.00;;;5.77;62.15
20860;BME280;10590;48.154;11.514;2023-02-03T10:36:54;96638.09;;;5.80;61.73
20860;BME280;10590;48.154;11.514;2023-02-03T10:42:04;96656.47;;;6.06;61.72
20860;BME280;10590;48.154;11.514;2023-02-03T10:47:19;96658.59;;;6.04;61.29
20860;BME280;10590;48.154;11.514;2023-02-03T10:52:27;96624.94;;;6.05;61.00
20860;BME280;10590;48.154;11.514;2023-02-03T10:57:34;96651.94;;;5.97;61.71
20860;BME280;10590;48.154;11.514;2023-02-03T11:02:38;96649.84;;;6.04;61.17
20860;BME280;10590;48.154;11.514;2023-02-03T11:07:41;96640.09;;;6.15;60.87
20860;BME280;10590;48.154;11.514;2023-02-03T11:12:44;96639.06;;;6.31;60.26
20860;BME280;10590;48.154;11.514;2023-02-03T11:17:46;96623.44;;;6.29;59.42
20860;BME280;10590;48.154;11.514;2023-02-03T11:22:49;96618.16;;;6.34;59.15
20860;BME280;10590;48.154;11.514;2023-02-03T11:27:54;96622.94;;;6.68;58.29
20860;BME280;10590;48.154;11.514;2023-02-03T11:32:59;96612.59;;;6.61;58.36
20860;BME280;10590;48.154;11.514;2023-02-03T11:38:01;96597.75;;;6.65;57.54
20860;BME280;10590;48.154;11.514;2023-02-03T11:43:16;96591.91;;;6.58;57.28
20860;BME280;10590;48.154;11.514;2023-02-03T11:48:25;96575.19;;;6.78;57.23
20860;BME280;10590;48.154;11.514;2023-02-03T11:53:34;96567.25;;;6.53;57.25
20860;BME280;10590;48.154;11.514;2023-02-03T11:58:57;96560.88;;;6.59;57.36
20860;BME280;10590;48.154;11.514;2023-02-03T12:04:25;96561.41;;;6.46;58.01
20860;BME280;10590;48.154;11.514;2023-02-03T12:09:46;96542.34;;;6.38;57.58
20860;BME280;10590;48.154;11.514;2023-02-03T12:15:00;96550.81;;;6.35;57.76
20860;BME280;10590;48.154;11.514;2023-02-03T12:20:17;96558.22;;;6.23;58.26
20860;BME280;10590;48.154;11.514;2023-02-03T12:25:38;96534.38;;;6.28;57.61
20860;BME280;10590;48.154;11.514;2023-02-03T12:30:54;96538.09;;;6.27;57.86
20860;BME280;10590;48.154;11.514;2023-02-03T12:36:04;96507.34;;;6.36;58.18
20860;BME280;10590;48.154;11.514;2023-02-03T12:41:12;96491.16;;;6.48;57.61
20860;BME280;10590;48.154;11.514;2023-02-03T12:46:19;96473.16;;;6.45;57.71
20860;BME280;10590;48.154;11.514;2023-02-03T12:51:29;96473.94;;;6.41;57.72
20860;BME280;10590;48.154;11.514;2023-02-03T12:56:37;96468.66;;;6.41;58.32
20860;BME280;10590;48.154;11.514;2023-02-03T13:01:47;96462.81;;;6.38;58.51
20860;BME280;10590;48.154;11.514;2023-02-03T13:06:55;96456.47;;;6.24;58.85
20860;BME280;10590;48.154;11.514;2023-02-03T13:12:04;96464.97;;;6.16;59.35
20860;BME280;10590;48.154;11.514;2023-02-03T13:17:14;96459.66;;;6.11;59.60
20860;BME280;10590;48.154;11.514;2023-02-03T13:22:21;96455.66;;;6.03;60.21
20860;BME280;10590;48.154;11.514;2023-02-03T13:27:46;96482.41;;;6.02;60.47
20860;BME280;10590;48.154;11.514;2023-02-03T13:33:20;96454.34;;;6.01;60.31
20860;BME280;10590;48.154;11.514;2023-02-03T13:38:48;96422.81;;;6.04;60.53
20860;BME280;10590;48.154;11.514;2023-02-03T13:43:56;96428.38;;;5.98;60.71
20860;BME280;10590;48.154;11.514;2023-02-03T13:49:02;96418.31;;;5.95;61.38
20860;BME280;10590;48.154;11.514;2023-02-03T13:54:14;96409.84;;;5.93;61.63
20860;BME280;10590;48.154;11.514;2023-02-03T13:59:27;96411.66;;;5.82;60.85
20860;BME280;10590;48.154;11.514;2023-02-03T14:04:54;96393.91;;;5.88;60.91
20860;BME280;10590;48.154;11.514;2023-02-03T14:10:18;96391.81;;;5.90;60.82
20860;BME280;10590;48.154;11.514;2023-02-03T14:15:33;96375.66;;;5.91;60.57
20860;BME280;10590;48.154;11.514;2023-02-03T14:20:40;96358.97;;;5.91;61.00
20860;BME280;10590;48.154;11.514;2023-02-03T14:25:46;96345.19;;;5.84;60.38
20860;BME280;10590;48.154;11.514;2023-02-03T14:31:07;96358.97;;;5.91;60.79
20860;BME280;10590;48.154;11.514;2023-02-03T14:36:44;96403.44;;;5.89;60.71
20860;BME280;10590;48.154;11.514;2023-02-03T14:41:53;96396.56;;;5.88;60.79
20860;BME280;10590;48.154;11.514;2023-02-03T14:47:03;96385.97;;;5.88;60.51
20860;BME280;10590;48.154;11.514;2023-02-03T14:52:18;96385.97;;;5.88;61.05
20860;BME280;10590;48.154;11.514;2023-02-03T14:57:33;96363.47;;;5.85;60.62
20860;BME280;10590;48.154;11.514;2023-02-03T15:03:17;96380.16;;;5.86;61.49
20860;BME280;10590;48.154;11.514;2023-02-03T15:08:43;96346.78;;;5.80;61.32
20860;BME280;10590;48.154;11.514;2023-02-03T15:13:46;96364.25;;;5.75;61.70
20860;BME280;10590;48.154;11.514;2023-02-03T15:18:56;96378.81;;;5.78;61.80
20860;BME280;10590;48.154;11.514;2023-02-03T15:24:00;96376.97;;;5.79;61.59
20860;BME280;10590;48.154;11.514;2023-02-03T15:29:03;96400.28;;;5.76;61.93
20860;BME280;10590;48.154;11.514;2023-02-03T15:34:21;96413.25;;;5.73;62.18
20860;BME280;10590;48.154;11.514;2023-02-03T15:39:36;96416.97;;;5.67;62.71
20860;BME280;10590;48.154;11.514;2023-02-03T15:44:44;96410.06;;;5.66;62.98
20860;BME280;10590;48.154;11.514;2023-02-03T15:49:52;96379.34;;;5.60;63.17
20860;BME280;10590;48.154;11.514;2023-02-03T15:55:06;96395.50;;;5.63;63.48
20860;BME280;10590;48.154;11.514;2023-02-03T16:00:26;96380.69;;;5.57;63.58
20860;BME280;10590;48.154;11.514;2023-02-03T16:05:31;96387.03;;;5.56;63.77
20860;BME280;10590;48.154;11.514;2023-02-03T16:10:35;96401.59;;;5.59;64.42
20860;BME280;10590;48.154;11.514;2023-02-03T16:15:36;96406.63;;;5.60;64.47
20860;BME280;10590;48.154;11.514;2023-02-03T16:20:47;96398.69;;;5.55;64.56
20860;BME280;10590;48.154;11.514;2023-02-03T16:26:15;96387.56;;;5.68;66.86
20860;BME280;10590;48.154;11.514;2023-02-03T16:31:20;96379.63;;;5.89;65.37
20860;BME280;10590;48.154;11.514;2023-02-03T16:36:41;96419.59;;;5.52;65.79
20860;BME280;10590;48.154;11.514;2023-02-03T16:42:08;96408.72;;;5.43;66.46
20860;BME280;10590;48.154;11.514;2023-02-03T16:47:31;96451.06;;;5.38;66.98
20860;BME280;10590;48.154;11.514;2023-02-03T16:52:50;96439.41;;;5.34;67.51
20860;BME280;10590;48.154;11.514;2023-02-03T16:57:53;96447.88;;;5.31;67.74
20860;BME280;10590;48.154;11.514;2023-02-03T17:02:55;96452.09;;;5.32;67.78
20860;BME280;10590;48.154;11.514;2023-02-03T17:07:56;96444.16;;;5.27;67.61
20860;BME280;10590;48.154;11.514;2023-02-03T17:13:00;96430.66;;;5.28;67.68
20860;BME280;10590;48.154;11.514;2023-02-03T17:18:02;96429.03;;;5.17;68.15
20860;BME280;10590;48.154;11.514;2023-02-03T17:23:03;96449.13;;;5.13;69.18
20860;BME280;10590;48.154;11.514;2023-02-03T17:28:10;96439.31;;;5.13;68.86
20860;BME280;10590;48.154;11.514;2023-02-03T17:33:12;96453.34;;;5.14;68.91
20860;BME280;10590;48.154;11.514;2023-02-03T17:38:14;96453.34;;;5.14;69.33
20860;BME280;10590;48.154;11.514;2023-02-03T17:43:17;96439.81;;;5.05;69.65
20860;BME280;10590;48.154;11.514;2023-02-03T17:48:19;96453.34;;;5.14;69.60
20860;BME280;10590;48.154;11.514;2023-02-03T17:53:21;96452.28;;;5.10;70.91
20860;BME280;10590;48.154;11.514;2023-02-03T17:58:24;96447.50;;;5.02;71.24
20860;BME280;10590;48.154;11.514;2023-02-03T18:03:26;96449.59;;;5.00;71.52
20860;BME280;10590;48.154;11.514;2023-02-03T18:08:28;96451.16;;;4.96;71.88
20860;BME280;10590;48.154;11.514;2023-02-03T18:13:34;96445.34;;;4.94;71.39
20860;BME280;10590;48.154;11.514;2023-02-03T18:18:36;96464.16;;;5.02;71.51
20860;BME280;10590;48.154;11.514;2023-02-03T18:23:39;96463.59;;;4.95;71.68
20860;BME280;10590;48.154;11.514;2023-02-03T18:28:43;96470.97;;;4.88;72.50
20860;BME280;10590;48.154;11.514;2023-02-03T18:33:45;96441.56;;;4.74;73.40
20860;BME280;10590;48.154;11.514;2023-02-03T18:38:47;96460.03;;;4.69;73.95
20860;BME280;10590;48.154;11.514;2023-02-03T18:43:50;96452.44;;;4.83;73.50
20860;BME280;10590;48.154;11.514;2023-02-03T18:48:52;96447.94;;;4.78;73.35
20860;BME280;10590;48.154;11.514;2023-02-03T18:53:56;96425.97;;;4.78;73.38
20860;BME280;10590;48.154;11.514;2023-02-03T18:58:59;96438.16;;;4.79;74.22
20860;BME280;10590;48.154;11.514;2023-02-03T19:04:03;96451.84;;;4.71;75.58
20860;BME280;10590;48.154;11.514;2023-02-03T19:09:04;96435.38;;;4.54;77.32
20860;BME280;10590;48.154;11.514;2023-02-03T19:14:07;96389.84;;;4.36;79.51
20860;BME280;10590;48.154;11.514;2023-02-03T19:19:11;96412.81;;;4.36;80.30
20860;BME280;10590;48.154;11.514;2023-02-03T19:24:13;96378.75;;;4.34;79.54
20860;BME280;10590;48.154;11.514;2023-02-03T19:29:16;96404.31;;;4.29;81.02
20860;BME280;10590;48.154;11.514;2023-02-03T19:34:18;96433.66;;;4.32;81.33
20860;BME280;10590;48.154;11.514;2023-02-03T19:39:19;96439.94;;;4.26;81.20
20860;BME280;10590;48.154;11.514;2023-02-03T19:44:23;96406.63;;;4.20;81.81
20860;BME280;10590;48.154;11.514;2023-02-03T19:49:25;96402.16;;;4.26;81.15
20860;BME280;10590;48.154;11.514;2023-02-03T19:54:27;96365.97;;;4.26;81.86
20860;BME280;10590;48.154;11.514;2023-02-03T19:59:30;96367.03;;;4.25;81.76
20860;BME280;10590;48.154;11.514;2023-02-03T20:04:32;96374.69;;;4.27;82.08
20860;BME280;10590;48.154;11.514;2023-02-03T20:09:35;96382.84;;;4.20;82.15
20860;BME280;10590;48.154;11.514;2023-02-03T20:14:38;96416.72;;;4.28;82.59
20860;BME280;10590;48.154;11.514;2023-02-03T20:19:39;96428.31;;;4.22;83.07
20860;BME280;10590;48.154;11.514;2023-02-03T20:24:41;96414.31;;;4.27;82.38
20860;BME280;10590;48.154;11.514;2023-02-03T20:29:44;96416.69;;;4.23;82.40
20860;BME280;10590;48.154;11.514;2023-02-03T20:34:46;96407.16;;;4.22;83.25
20860;BME280;10590;48.154;11.514;2023-02-03T20:39:48;96435.16;;;4.23;82.92
20860;BME280;10590;48.154;11.514;2023-02-03T20:44:50;96428.88;;;4.29;82.35
20860;BME280;10590;48.154;11.514;2023-02-03T20:49:53;96440.75;;;4.27;82.61
20860;BME280;10590;48.154;11.514;2023-02-03T20:54:55;96467.44;;;4.30;82.62
20860;BME280;10590;48.154;11.514;2023-02-03T20:59:58;96466.09;;;4.28;82.19
20860;BME280;10590;48.154;11.514;2023-02-03T21:05:00;96471.19;;;4.34;81.97
20860;BME280;10590;48.154;11.514;2023-02-03T21:10:18;96460.06;;;4.32;81.69
20860;BME280;10590;48.154;11.514;2023-02-03T21:15:25;96469.34;;;4.35;81.92
20860;BME280;10590;48.154;11.514;2023-02-03T21:20:29;96478.88;;;4.36;81.80
20860;BME280;10590;48.154;11.514;2023-02-03T21:25:32;96476.22;;;4.36;81.57
20860;BME280;10590;48.154;11.514;2023-02-03T21:30:37;96459.06;;;4.38;81.51
20860;BME280;10590;48.154;11.514;2023-02-03T21:35:41;96458.56;;;4.41;81.36
20860;BME280;10590;48.154;11.514;2023-02-03T21:40:43;96440.63;;;4.48;80.85
20860;BME280;10590;48.154;11.514;2023-02-03T21:45:46;96443.03;;;4.50;80.38
20860;BME280;10590;48.154;11.514;2023-02-03T21:50:49;96433.78;;;4.53;80.20
20860;BME280;10590;48.154;11.514;2023-02-03T21:55:51;96452.25;;;4.47;80.83
20860;BME280;10590;48.154;11.514;2023-02-03T22:00:55;96459.38;;;4.42;81.49
20860;BME280;10590;48.154;11.514;2023-02-03T22:06:14;96452.72;;;4.34;82.17
20860;BME280;10590;48.154;11.514;2023-02-03T22:11:17;96456.88;;;4.30;81.70
20860;BME280;10590;48.154;11.514;2023-02-03T22:16:20;96460.03;;;4.27;81.86
20860;BME280;10590;48.154;11.514;2023-02-03T22:21:22;96456.34;;;4.28;82.10
20860;BME280;10590;48.154;11.514;2023-02-03T22:26:24;96459.50;;;4.25;81.50
20860;BME280;10590;48.154;11.514;2023-02-03T22:31:27;96452.91;;;4.28;81.38
20860;BME280;10590;48.154;11.514;2023-02-03T22:36:28;96483.81;;;4.27;81.24
20860;BME280;10590;48.154;11.514;2023-02-03T22:41:30;96470.56;;;4.22;81.30
20860;BME280;10590;48.154;11.514;2023-02-03T22:46:33;96477.69;;;4.22;81.98
20860;BME280;10590;48.154;11.514;2023-02-03T22:51:34;96485.06;;;4.20;82.55
20860;BME280;10590;48.154;11.514;2023-02-03T22:56:36;96487.94;;;4.13;82.91
20860;BME280;10590;48.154;11.514;2023-02-03T23:01:39;96503.03;;;4.18;82.69
20860;BME280;10590;48.154;11.514;2023-02-03T23:06:41;96516.06;;;3.97;84.78
20860;BME280;10590;48.154;11.514;2023-02-03T23:11:42;96527.88;;;3.90;85.64
20860;BME280;10590;48.154;11.514;2023-02-03T23:16:45;96507.75;;;3.83;85.50
20860;BME280;10590;48.154;11.514;2023-02-03T23:21:47;96542.06;;;3.83;86.27
20860;BME280;10590;48.154;11.514;2023-02-03T23:26:49;96553.44;;;3.84;86.12
20860;BME280;10590;48.154;11.514;2023-02-03T23:31:52;96552.38;;;3.85;86.22
20860;BME280;10590;48.154;11.514;2023-02-03T23:36:55;96555.75;;;3.80;86.29
20860;BME280;10590;48.154;11.514;2023-02-03T23:42:00;96578.47;;;3.81;86.29
20860;BME280;10590;48.154;11.514;2023-02-03T23:47:03;96576.63;;;3.82;86.42
20860;BME280;10590;48.154;11.514;2023-02-03T23:52:05;96576.34;;;3.78;86.92
20860;BME280;10590;48.154;11.514;2023-02-03T23:57:06;96572.03;;;3.72;87.31
